Terminal Aerodrome Forecast
Issued by NWS

Home | Current Version | Previous Version | Text Only | Print | Product List | Glossary On
Versions: 1 2 3 4 5 6 7 8 9 10 11 12 13 14 15 16 17 18 19 20 21 22 23 24 25 26 27 28
243
FTUS42 KJAX 232244 AAA
TAFVQQ
TAF AMD
KVQQ 232244Z 2323/2418 16005KT P6SM VCSH SCT040 BKN080 OVC150
     FM240400 00000KT P6SM SCT080 BKN150
     FM241500 15006KT P6SM SCT020 SCT250=

USA.gov is the U.S. government's official web portal to all federal, state and local government web resources and services.